sensor_id;sensor_type;location;lat;lon;timestamp;P1;durP1;ratioP1;P2;durP2;ratioP2
43487;SDS011;29078;41.932;25.554;2023-01-15T00:00:11;16.10;;;11.57;;
43487;SDS011;29078;41.932;25.554;2023-01-15T00:02:37;17.55;;;12.65;;
43487;SDS011;29078;41.932;25.554;2023-01-15T00:05:03;15.40;;;11.02;;
43487;SDS011;29078;41.932;25.554;2023-01-15T00:07:29;16.42;;;11.95;;
43487;SDS011;29078;41.932;25.554;2023-01-15T00:09:55;16.08;;;11.40;;
43487;SDS011;29078;41.932;25.554;2023-01-15T00:12:21;15.85;;;11.13;;
43487;SDS011;29078;41.932;25.554;2023-01-15T00:14:46;17.55;;;11.55;;
43487;SDS011;29078;41.932;25.554;2023-01-15T00:17:12;18.83;;;12.32;;
43487;SDS011;29078;41.932;25.554;2023-01-15T00:19:37;17.98;;;12.38;;
43487;SDS011;29078;41.932;25.554;2023-01-15T00:22:02;15.75;;;11.40;;
43487;SDS011;29078;41.932;25.554;2023-01-15T00:24:28;17.77;;;11.85;;
43487;SDS011;29078;41.932;25.554;2023-01-15T00:27:12;15.35;;;11.90;;
43487;SDS011;29078;41.932;25.554;2023-01-15T00:29:56;15.88;;;11.45;;
43487;SDS011;29078;41.932;25.554;2023-01-15T00:32:22;18.98;;;14.07;;
43487;SDS011;29078;41.932;25.554;2023-01-15T00:34:47;17.15;;;12.60;;
43487;SDS011;29078;41.932;25.554;2023-01-15T00:37:13;17.08;;;11.90;;
43487;SDS011;29078;41.932;25.554;2023-01-15T00:39:38;17.10;;;12.68;;
43487;SDS011;29078;41.932;25.554;2023-01-15T00:42:03;15.00;;;11.23;;
43487;SDS011;29078;41.932;25.554;2023-01-15T00:44:29;17.63;;;11.18;;
43487;SDS011;29078;41.932;25.554;2023-01-15T00:46:57;17.70;;;13.15;;
43487;SDS011;29078;41.932;25.554;2023-01-15T00:49:22;19.08;;;13.43;;
43487;SDS011;29078;41.932;25.554;2023-01-15T00:51:48;17.75;;;13.07;;
43487;SDS011;29078;41.932;25.554;2023-01-15T00:54:15;17.13;;;12.27;;
43487;SDS011;29078;41.932;25.554;2023-01-15T00:56:40;14.45;;;11.15;;
43487;SDS011;29078;41.932;25.554;2023-01-15T00:59:06;16.58;;;11.60;;
43487;SDS011;29078;41.932;25.554;2023-01-15T01:01:31;15.85;;;12.20;;
43487;SDS011;29078;41.932;25.554;2023-01-15T01:03:57;16.33;;;12.07;;
43487;SDS011;29078;41.932;25.554;2023-01-15T01:06:23;16.73;;;11.38;;
43487;SDS011;29078;41.932;25.554;2023-01-15T01:08:48;16.25;;;11.50;;
43487;SDS011;29078;41.932;25.554;2023-01-15T01:11:15;15.88;;;12.25;;
43487;SDS011;29078;41.932;25.554;2023-01-15T01:13:42;13.88;;;11.18;;
43487;SDS011;29078;41.932;25.554;2023-01-15T01:16:42;14.50;;;10.90;;
43487;SDS011;29078;41.932;25.554;2023-01-15T01:19:03;14.65;;;10.50;;
43487;SDS011;29078;41.932;25.554;2023-01-15T01:21:30;13.68;;;10.02;;
43487;SDS011;29078;41.932;25.554;2023-01-15T01:23:57;13.48;;;9.77;;
43487;SDS011;29078;41.932;25.554;2023-01-15T01:26:23;14.48;;;10.15;;
43487;SDS011;29078;41.932;25.554;2023-01-15T01:28:49;14.10;;;10.07;;
43487;SDS011;29078;41.932;25.554;2023-01-15T01:31:16;14.60;;;10.48;;
43487;SDS011;29078;41.932;25.554;2023-01-15T01:33:42;15.63;;;11.20;;
43487;SDS011;29078;41.932;25.554;2023-01-15T01:36:08;15.30;;;10.80;;
43487;SDS011;29078;41.932;25.554;2023-01-15T01:38:34;18.08;;;11.43;;
43487;SDS011;29078;41.932;25.554;2023-01-15T01:40:59;13.98;;;10.60;;
43487;SDS011;29078;41.932;25.554;2023-01-15T01:43:25;15.60;;;11.65;;
43487;SDS011;29078;41.932;25.554;2023-01-15T01:45:52;12.75;;;10.15;;
43487;SDS011;29078;41.932;25.554;2023-01-15T01:48:20;14.68;;;10.48;;
43487;SDS011;29078;41.932;25.554;2023-01-15T01:50:55;14.60;;;11.70;;
43487;SDS011;29078;41.932;25.554;2023-01-15T01:53:26;14.52;;;11.13;;
43487;SDS011;29078;41.932;25.554;2023-01-15T01:55:54;15.10;;;11.48;;
43487;SDS011;29078;41.932;25.554;2023-01-15T01:58:21;15.57;;;12.70;;
43487;SDS011;29078;41.932;25.554;2023-01-15T02:00:49;15.65;;;10.80;;
43487;SDS011;29078;41.932;25.554;2023-01-15T02:03:17;15.68;;;11.32;;
43487;SDS011;29078;41.932;25.554;2023-01-15T02:05:47;15.05;;;11.75;;
43487;SDS011;29078;41.932;25.554;2023-01-15T02:08:16;16.30;;;12.00;;
43487;SDS011;29078;41.932;25.554;2023-01-15T02:10:42;15.73;;;11.85;;
43487;SDS011;29078;41.932;25.554;2023-01-15T02:13:24;17.33;;;12.90;;
43487;SDS011;29078;41.932;25.554;2023-01-15T02:16:02;16.48;;;12.25;;
43487;SDS011;29078;41.932;25.554;2023-01-15T02:32:06;20.60;;;13.75;;
43487;SDS011;29078;41.932;25.554;2023-01-15T02:34:39;16.63;;;13.20;;
43487;SDS011;29078;41.932;25.554;2023-01-15T02:37:20;21.60;;;14.85;;
43487;SDS011;29078;41.932;25.554;2023-01-15T02:39:49;22.92;;;15.95;;
43487;SDS011;29078;41.932;25.554;2023-01-15T02:42:16;21.35;;;14.73;;
43487;SDS011;29078;41.932;25.554;2023-01-15T02:44:46;28.77;;;18.55;;
43487;SDS011;29078;41.932;25.554;2023-01-15T02:47:16;31.98;;;19.92;;
43487;SDS011;29078;41.932;25.554;2023-01-15T02:49:46;48.90;;;25.98;;
43487;SDS011;29078;41.932;25.554;2023-01-15T02:52:16;51.78;;;28.15;;
43487;SDS011;29078;41.932;25.554;2023-01-15T02:54:48;55.10;;;27.73;;
43487;SDS011;29078;41.932;25.554;2023-01-15T02:57:17;58.78;;;29.58;;
43487;SDS011;29078;41.932;25.554;2023-01-15T02:59:46;57.25;;;29.35;;
43487;SDS011;29078;41.932;25.554;2023-01-15T03:02:14;60.72;;;29.92;;
43487;SDS011;29078;41.932;25.554;2023-01-15T03:05:08;62.53;;;30.30;;
43487;SDS011;29078;41.932;25.554;2023-01-15T03:10:10;68.82;;;32.88;;
43487;SDS011;29078;41.932;25.554;2023-01-15T03:12:40;56.85;;;29.20;;
43487;SDS011;29078;41.932;25.554;2023-01-15T03:15:42;57.92;;;31.88;;
43487;SDS011;29078;41.932;25.554;2023-01-15T03:18:35;58.28;;;30.33;;
43487;SDS011;29078;41.932;25.554;2023-01-15T03:21:30;57.65;;;30.95;;
43487;SDS011;29078;41.932;25.554;2023-01-15T03:24:22;57.10;;;31.85;;
43487;SDS011;29078;41.932;25.554;2023-01-15T03:26:55;55.85;;;31.17;;
43487;SDS011;29078;41.932;25.554;2023-01-15T03:29:21;45.92;;;27.52;;
43487;SDS011;29078;41.932;25.554;2023-01-15T03:31:49;41.42;;;26.13;;
43487;SDS011;29078;41.932;25.554;2023-01-15T03:34:15;48.97;;;29.85;;
43487;SDS011;29078;41.932;25.554;2023-01-15T03:36:41;37.38;;;23.98;;
43487;SDS011;29078;41.932;25.554;2023-01-15T03:39:07;41.35;;;25.83;;
43487;SDS011;29078;41.932;25.554;2023-01-15T03:49:35;30.98;;;19.45;;
43487;SDS011;29078;41.932;25.554;2023-01-15T04:00:05;28.70;;;20.55;;
43487;SDS011;29078;41.932;25.554;2023-01-15T04:02:39;29.05;;;18.33;;
43487;SDS011;29078;41.932;25.554;2023-01-15T04:05:07;30.85;;;19.65;;
43487;SDS011;29078;41.932;25.554;2023-01-15T04:07:32;28.02;;;19.17;;
43487;SDS011;29078;41.932;25.554;2023-01-15T04:09:58;31.38;;;20.42;;
43487;SDS011;29078;41.932;25.554;2023-01-15T04:12:24;31.05;;;20.42;;
43487;SDS011;29078;41.932;25.554;2023-01-15T04:14:51;31.67;;;22.25;;
43487;SDS011;29078;41.932;25.554;2023-01-15T04:17:17;32.83;;;21.20;;
43487;SDS011;29078;41.932;25.554;2023-01-15T04:19:42;33.67;;;22.60;;
43487;SDS011;29078;41.932;25.554;2023-01-15T04:22:09;33.50;;;21.98;;
43487;SDS011;29078;41.932;25.554;2023-01-15T04:24:35;34.67;;;21.58;;
43487;SDS011;29078;41.932;25.554;2023-01-15T04:27:01;28.33;;;20.10;;
43487;SDS011;29078;41.932;25.554;2023-01-15T04:29:26;31.70;;;19.92;;
43487;SDS011;29078;41.932;25.554;2023-01-15T04:31:52;34.85;;;21.85;;
43487;SDS011;29078;41.932;25.554;2023-01-15T04:34:21;35.42;;;23.17;;
43487;SDS011;29078;41.932;25.554;2023-01-15T04:36:47;30.42;;;20.92;;
43487;SDS011;29078;41.932;25.554;2023-01-15T04:39:13;35.53;;;23.08;;
43487;SDS011;29078;41.932;25.554;2023-01-15T04:41:38;33.13;;;21.95;;
43487;SDS011;29078;41.932;25.554;2023-01-15T04:44:22;35.67;;;22.33;;
43487;SDS011;29078;41.932;25.554;2023-01-15T04:46:52;31.92;;;21.30;;
43487;SDS011;29078;41.932;25.554;2023-01-15T04:49:17;27.50;;;18.65;;
43487;SDS011;29078;41.932;25.554;2023-01-15T04:51:43;31.48;;;20.42;;
43487;SDS011;29078;41.932;25.554;2023-01-15T04:54:10;27.42;;;18.52;;
43487;SDS011;29078;41.932;25.554;2023-01-15T04:56:40;26.90;;;18.75;;
43487;SDS011;29078;41.932;25.554;2023-01-15T04:59:08;33.58;;;20.77;;
43487;SDS011;29078;41.932;25.554;2023-01-15T05:01:34;29.50;;;19.90;;
43487;SDS011;29078;41.932;25.554;2023-01-15T05:03:59;33.58;;;22.35;;
43487;SDS011;29078;41.932;25.554;2023-01-15T05:06:26;30.05;;;21.25;;
43487;SDS011;29078;41.932;25.554;2023-01-15T05:08:52;33.70;;;21.33;;
43487;SDS011;29078;41.932;25.554;2023-01-15T05:11:17;28.95;;;19.13;;
43487;SDS011;29078;41.932;25.554;2023-01-15T05:13:43;22.83;;;15.90;;
43487;SDS011;29078;41.932;25.554;2023-01-15T05:16:12;24.23;;;17.65;;
43487;SDS011;29078;41.932;25.554;2023-01-15T05:18:43;22.33;;;15.68;;
43487;SDS011;29078;41.932;25.554;2023-01-15T05:21:28;22.27;;;15.07;;
43487;SDS011;29078;41.932;25.554;2023-01-15T05:23:56;25.23;;;17.42;;
43487;SDS011;29078;41.932;25.554;2023-01-15T05:26:22;25.08;;;17.80;;
43487;SDS011;29078;41.932;25.554;2023-01-15T05:28:48;25.20;;;17.40;;
43487;SDS011;29078;41.932;25.554;2023-01-15T05:31:17;25.10;;;17.50;;
43487;SDS011;29078;41.932;25.554;2023-01-15T05:33:45;31.13;;;20.38;;
43487;SDS011;29078;41.932;25.554;2023-01-15T05:36:12;28.25;;;19.05;;
43487;SDS011;29078;41.932;25.554;2023-01-15T05:38:40;29.02;;;19.15;;
43487;SDS011;29078;41.932;25.554;2023-01-15T05:41:07;23.88;;;16.42;;
43487;SDS011;29078;41.932;25.554;2023-01-15T05:43:53;27.95;;;19.42;;
43487;SDS011;29078;41.932;25.554;2023-01-15T05:46:19;42.83;;;28.60;;
43487;SDS011;29078;41.932;25.554;2023-01-15T05:48:45;40.67;;;26.08;;
43487;SDS011;29078;41.932;25.554;2023-01-15T05:51:11;38.85;;;26.83;;
43487;SDS011;29078;41.932;25.554;2023-01-15T05:53:37;34.33;;;22.80;;
43487;SDS011;29078;41.932;25.554;2023-01-15T05:56:02;37.65;;;23.50;;
43487;SDS011;29078;41.932;25.554;2023-01-15T05:58:29;35.65;;;23.80;;
43487;SDS011;29078;41.932;25.554;2023-01-15T06:00:55;36.08;;;24.35;;
43487;SDS011;29078;41.932;25.554;2023-01-15T06:03:21;34.13;;;23.30;;
43487;SDS011;29078;41.932;25.554;2023-01-15T06:05:51;36.72;;;23.23;;
43487;SDS011;29078;41.932;25.554;2023-01-15T06:08:20;42.85;;;26.67;;
43487;SDS011;29078;41.932;25.554;2023-01-15T06:10:47;31.80;;;21.67;;
43487;SDS011;29078;41.932;25.554;2023-01-15T06:13:14;34.42;;;22.15;;
43487;SDS011;29078;41.932;25.554;2023-01-15T06:15:40;33.15;;;21.77;;
43487;SDS011;29078;41.932;25.554;2023-01-15T06:18:06;33.20;;;21.23;;
43487;SDS011;29078;41.932;25.554;2023-01-15T06:20:34;35.95;;;21.83;;
43487;SDS011;29078;41.932;25.554;2023-01-15T06:23:00;31.48;;;20.92;;
43487;SDS011;29078;41.932;25.554;2023-01-15T06:25:25;34.45;;;22.00;;
43487;SDS011;29078;41.932;25.554;2023-01-15T06:27:51;31.33;;;20.67;;
43487;SDS011;29078;41.932;25.554;2023-01-15T06:30:16;29.90;;;20.95;;
43487;SDS011;29078;41.932;25.554;2023-01-15T06:32:42;32.17;;;21.13;;
43487;SDS011;29078;41.932;25.554;2023-01-15T06:35:07;31.80;;;21.05;;
43487;SDS011;29078;41.932;25.554;2023-01-15T06:37:34;34.63;;;22.77;;
43487;SDS011;29078;41.932;25.554;2023-01-15T06:39:59;29.73;;;21.63;;
43487;SDS011;29078;41.932;25.554;2023-01-15T06:42:24;27.52;;;19.25;;
43487;SDS011;29078;41.932;25.554;2023-01-15T06:45:12;25.58;;;17.15;;
43487;SDS011;29078;41.932;25.554;2023-01-15T06:47:56;24.02;;;17.00;;
43487;SDS011;29078;41.932;25.554;2023-01-15T06:50:22;26.20;;;18.80;;
43487;SDS011;29078;41.932;25.554;2023-01-15T06:52:48;26.65;;;17.50;;
43487;SDS011;29078;41.932;25.554;2023-01-15T06:55:13;22.92;;;17.73;;
43487;SDS011;29078;41.932;25.554;2023-01-15T06:57:39;25.98;;;17.50;;
43487;SDS011;29078;41.932;25.554;2023-01-15T07:00:06;27.20;;;18.58;;
43487;SDS011;29078;41.932;25.554;2023-01-15T07:02:32;32.63;;;21.55;;
43487;SDS011;29078;41.932;25.554;2023-01-15T07:04:58;28.65;;;20.63;;
43487;SDS011;29078;41.932;25.554;2023-01-15T07:07:24;31.65;;;20.65;;
43487;SDS011;29078;41.932;25.554;2023-01-15T07:09:49;31.35;;;19.27;;
43487;SDS011;29078;41.932;25.554;2023-01-15T07:12:15;39.80;;;23.77;;
43487;SDS011;29078;41.932;25.554;2023-01-15T07:14:41;45.05;;;24.08;;
43487;SDS011;29078;41.932;25.554;2023-01-15T07:17:06;40.05;;;22.60;;
43487;SDS011;29078;41.932;25.554;2023-01-15T07:19:32;44.53;;;23.73;;
43487;SDS011;29078;41.932;25.554;2023-01-15T07:21:57;36.67;;;21.60;;
43487;SDS011;29078;41.932;25.554;2023-01-15T07:24:23;49.58;;;24.67;;
43487;SDS011;29078;41.932;25.554;2023-01-15T07:26:48;47.63;;;23.98;;
43487;SDS011;29078;41.932;25.554;2023-01-15T07:29:13;52.38;;;25.60;;
43487;SDS011;29078;41.932;25.554;2023-01-15T07:31:39;48.20;;;25.13;;
43487;SDS011;29078;41.932;25.554;2023-01-15T07:34:05;45.85;;;24.50;;
43487;SDS011;29078;41.932;25.554;2023-01-15T07:36:31;55.03;;;26.00;;
43487;SDS011;29078;41.932;25.554;2023-01-15T07:38:56;48.78;;;26.90;;
43487;SDS011;29078;41.932;25.554;2023-01-15T07:41:22;54.63;;;27.58;;
43487;SDS011;29078;41.932;25.554;2023-01-15T07:44:08;51.10;;;27.58;;
43487;SDS011;29078;41.932;25.554;2023-01-15T07:46:52;45.42;;;25.38;;
43487;SDS011;29078;41.932;25.554;2023-01-15T07:49:47;56.17;;;26.83;;
43487;SDS011;29078;41.932;25.554;2023-01-15T07:54:40;55.35;;;28.70;;
43487;SDS011;29078;41.932;25.554;2023-01-15T07:57:06;57.22;;;31.95;;
43487;SDS011;29078;41.932;25.554;2023-01-15T07:59:32;58.58;;;31.88;;
43487;SDS011;29078;41.932;25.554;2023-01-15T08:01:57;54.28;;;30.58;;
43487;SDS011;29078;41.932;25.554;2023-01-15T08:04:23;60.85;;;32.28;;
43487;SDS011;29078;41.932;25.554;2023-01-15T08:06:48;54.75;;;29.98;;
43487;SDS011;29078;41.932;25.554;2023-01-15T08:09:13;59.22;;;33.05;;
43487;SDS011;29078;41.932;25.554;2023-01-15T08:11:39;49.63;;;30.15;;
43487;SDS011;29078;41.932;25.554;2023-01-15T08:14:23;58.40;;;32.13;;
43487;SDS011;29078;41.932;25.554;2023-01-15T08:17:07;57.13;;;32.65;;
43487;SDS011;29078;41.932;25.554;2023-01-15T08:19:32;55.83;;;31.10;;
43487;SDS011;29078;41.932;25.554;2023-01-15T08:21:58;55.88;;;31.77;;
43487;SDS011;29078;41.932;25.554;2023-01-15T08:24:26;51.65;;;30.23;;
43487;SDS011;29078;41.932;25.554;2023-01-15T08:26:52;44.13;;;26.92;;
43487;SDS011;29078;41.932;25.554;2023-01-15T08:29:18;45.65;;;27.25;;
43487;SDS011;29078;41.932;25.554;2023-01-15T08:31:44;43.58;;;25.65;;
43487;SDS011;29078;41.932;25.554;2023-01-15T08:34:09;41.00;;;24.70;;
43487;SDS011;29078;41.932;25.554;2023-01-15T08:36:35;39.53;;;23.00;;
43487;SDS011;29078;41.932;25.554;2023-01-15T08:39:01;40.17;;;23.20;;
43487;SDS011;29078;41.932;25.554;2023-01-15T08:41:26;40.50;;;23.90;;
43487;SDS011;29078;41.932;25.554;2023-01-15T08:43:52;38.03;;;23.08;;
43487;SDS011;29078;41.932;25.554;2023-01-15T08:46:17;41.67;;;23.63;;
43487;SDS011;29078;41.932;25.554;2023-01-15T08:48:43;40.00;;;23.92;;
43487;SDS011;29078;41.932;25.554;2023-01-15T08:51:09;37.22;;;23.05;;
43487;SDS011;29078;41.932;25.554;2023-01-15T08:53:35;30.45;;;18.23;;
43487;SDS011;29078;41.932;25.554;2023-01-15T08:56:01;32.05;;;19.02;;
43487;SDS011;29078;41.932;25.554;2023-01-15T08:58:27;32.13;;;20.25;;
43487;SDS011;29078;41.932;25.554;2023-01-15T09:00:54;37.17;;;22.05;;
43487;SDS011;29078;41.932;25.554;2023-01-15T09:03:20;35.15;;;21.48;;
43487;SDS011;29078;41.932;25.554;2023-01-15T09:05:45;41.10;;;23.13;;
43487;SDS011;29078;41.932;25.554;2023-01-15T09:08:10;38.15;;;23.75;;
43487;SDS011;29078;41.932;25.554;2023-01-15T09:10:36;30.88;;;18.80;;
43487;SDS011;29078;41.932;25.554;2023-01-15T09:13:01;33.55;;;19.50;;
43487;SDS011;29078;41.932;25.554;2023-01-15T09:15:28;37.35;;;22.75;;
43487;SDS011;29078;41.932;25.554;2023-01-15T09:17:55;39.65;;;22.02;;
43487;SDS011;29078;41.932;25.554;2023-01-15T09:20:21;38.92;;;22.40;;
43487;SDS011;29078;41.932;25.554;2023-01-15T09:22:47;38.05;;;23.05;;
43487;SDS011;29078;41.932;25.554;2023-01-15T09:25:13;47.30;;;25.73;;
43487;SDS011;29078;41.932;25.554;2023-01-15T09:27:40;46.45;;;23.50;;
43487;SDS011;29078;41.932;25.554;2023-01-15T09:30:06;45.42;;;24.05;;
43487;SDS011;29078;41.932;25.554;2023-01-15T09:32:34;49.50;;;25.00;;
43487;SDS011;29078;41.932;25.554;2023-01-15T09:34:59;46.25;;;21.98;;
43487;SDS011;29078;41.932;25.554;2023-01-15T09:37:25;42.63;;;21.35;;
43487;SDS011;29078;41.932;25.554;2023-01-15T09:39:50;42.90;;;23.70;;
43487;SDS011;29078;41.932;25.554;2023-01-15T09:47:39;46.90;;;24.17;;
43487;SDS011;29078;41.932;25.554;2023-01-15T09:55:25;48.90;;;24.27;;
43487;SDS011;29078;41.932;25.554;2023-01-15T09:57:54;44.60;;;22.70;;
43487;SDS011;29078;41.932;25.554;2023-01-15T10:00:22;42.92;;;23.90;;
43487;SDS011;29078;41.932;25.554;2023-01-15T10:10:34;52.67;;;23.05;;
43487;SDS011;29078;41.932;25.554;2023-01-15T10:16:00;41.42;;;19.73;;
43487;SDS011;29078;41.932;25.554;2023-01-15T10:18:26;42.55;;;21.42;;
43487;SDS011;29078;41.932;25.554;2023-01-15T10:23:32;37.47;;;18.15;;
43487;SDS011;29078;41.932;25.554;2023-01-15T10:26:10;35.38;;;19.13;;
43487;SDS011;29078;41.932;25.554;2023-01-15T10:28:57;38.53;;;20.85;;
43487;SDS011;29078;41.932;25.554;2023-01-15T10:31:41;30.93;;;18.13;;
43487;SDS011;29078;41.932;25.554;2023-01-15T10:37:20;24.10;;;16.90;;
43487;SDS011;29078;41.932;25.554;2023-01-15T10:42:38;22.17;;;15.30;;
43487;SDS011;29078;41.932;25.554;2023-01-15T10:45:24;18.83;;;14.00;;
43487;SDS011;29078;41.932;25.554;2023-01-15T10:48:17;21.13;;;15.07;;
43487;SDS011;29078;41.932;25.554;2023-01-15T10:50:53;21.25;;;16.17;;
43487;SDS011;29078;41.932;25.554;2023-01-15T10:56:23;20.60;;;15.60;;
43487;SDS011;29078;41.932;25.554;2023-01-15T11:01:57;19.33;;;13.95;;
43487;SDS011;29078;41.932;25.554;2023-01-15T11:04:24;18.73;;;13.63;;
43487;SDS011;29078;41.932;25.554;2023-01-15T11:06:55;19.48;;;14.27;;
43487;SDS011;29078;41.932;25.554;2023-01-15T11:09:22;21.88;;;15.68;;
43487;SDS011;29078;41.932;25.554;2023-01-15T11:12:01;21.40;;;16.13;;
43487;SDS011;29078;41.932;25.554;2023-01-15T11:14:43;24.65;;;17.33;;
43487;SDS011;29078;41.932;25.554;2023-01-15T11:17:31;36.20;;;24.95;;
43487;SDS011;29078;41.932;25.554;2023-01-15T11:20:32;35.90;;;24.48;;
43487;SDS011;29078;41.932;25.554;2023-01-15T11:23:10;31.00;;;23.63;;
43487;SDS011;29078;41.932;25.554;2023-01-15T11:25:38;32.25;;;23.15;;
43487;SDS011;29078;41.932;25.554;2023-01-15T11:28:11;39.50;;;27.15;;
43487;SDS011;29078;41.932;25.554;2023-01-15T11:30:39;37.47;;;27.00;;
43487;SDS011;29078;41.932;25.554;2023-01-15T11:33:17;41.33;;;29.38;;
43487;SDS011;29078;41.932;25.554;2023-01-15T11:35:50;40.72;;;28.77;;
43487;SDS011;29078;41.932;25.554;2023-01-15T11:38:21;46.60;;;31.20;;
43487;SDS011;29078;41.932;25.554;2023-01-15T11:40:51;42.50;;;29.60;;
43487;SDS011;29078;41.932;25.554;2023-01-15T11:43:19;44.08;;;32.05;;
43487;SDS011;29078;41.932;25.554;2023-01-15T11:46:05;47.30;;;32.03;;
43487;SDS011;29078;41.932;25.554;2023-01-15T11:48:48;51.13;;;33.55;;
43487;SDS011;29078;41.932;25.554;2023-01-15T11:51:38;52.63;;;35.70;;
43487;SDS011;29078;41.932;25.554;2023-01-15T11:54:08;60.85;;;37.17;;
43487;SDS011;29078;41.932;25.554;2023-01-15T11:56:40;59.17;;;37.30;;
43487;SDS011;29078;41.932;25.554;2023-01-15T11:59:14;54.03;;;35.05;;
43487;SDS011;29078;41.932;25.554;2023-01-15T12:04:22;43.95;;;28.35;;
43487;SDS011;29078;41.932;25.554;2023-01-15T12:06:53;41.00;;;27.88;;
43487;SDS011;29078;41.932;25.554;2023-01-15T12:09:23;32.85;;;24.27;;
43487;SDS011;29078;41.932;25.554;2023-01-15T12:12:02;22.75;;;17.67;;
43487;SDS011;29078;41.932;25.554;2023-01-15T12:18:00;16.58;;;12.93;;
43487;SDS011;29078;41.932;25.554;2023-01-15T12:32:12;12.35;;;8.68;;
43487;SDS011;29078;41.932;25.554;2023-01-15T12:37:45;9.73;;;8.55;;
43487;SDS011;29078;41.932;25.554;2023-01-15T12:40:39;12.77;;;10.00;;
43487;SDS011;29078;41.932;25.554;2023-01-15T12:43:20;12.02;;;9.23;;
43487;SDS011;29078;41.932;25.554;2023-01-15T12:46:11;13.70;;;10.82;;
43487;SDS011;29078;41.932;25.554;2023-01-15T12:48:51;11.13;;;9.80;;
43487;SDS011;29078;41.932;25.554;2023-01-15T12:51:34;10.80;;;9.70;;
43487;SDS011;29078;41.932;25.554;2023-01-15T12:54:06;11.60;;;9.52;;
43487;SDS011;29078;41.932;25.554;2023-01-15T12:59:25;11.85;;;9.93;;
43487;SDS011;29078;41.932;25.554;2023-01-15T13:02:03;13.27;;;9.70;;
43487;SDS011;29078;41.932;25.554;2023-01-15T13:07:36;8.20;;;7.38;;
43487;SDS011;29078;41.932;25.554;2023-01-15T13:10:14;10.27;;;8.88;;
43487;SDS011;29078;41.932;25.554;2023-01-15T13:12:43;10.48;;;8.85;;
43487;SDS011;29078;41.932;25.554;2023-01-15T13:15:15;9.32;;;7.07;;
43487;SDS011;29078;41.932;25.554;2023-01-15T13:34:22;11.55;;;9.00;;
43487;SDS011;29078;41.932;25.554;2023-01-15T13:36:49;11.60;;;8.88;;
43487;SDS011;29078;41.932;25.554;2023-01-15T13:39:21;12.02;;;10.10;;
43487;SDS011;29078;41.932;25.554;2023-01-15T13:41:50;15.52;;;11.85;;
43487;SDS011;29078;41.932;25.554;2023-01-15T13:44:37;10.70;;;8.75;;
43487;SDS011;29078;41.932;25.554;2023-01-15T13:47:12;8.73;;;7.65;;
43487;SDS011;29078;41.932;25.554;2023-01-15T13:49:52;7.75;;;6.80;;
43487;SDS011;29078;41.932;25.554;2023-01-15T13:52:27;8.68;;;7.78;;
43487;SDS011;29078;41.932;25.554;2023-01-15T13:55:19;10.20;;;8.82;;
43487;SDS011;29078;41.932;25.554;2023-01-15T13:57:46;9.10;;;7.68;;
43487;SDS011;29078;41.932;25.554;2023-01-15T14:00:34;8.20;;;7.28;;
43487;SDS011;29078;41.932;25.554;2023-01-15T14:03:02;9.48;;;8.48;;
43487;SDS011;29078;41.932;25.554;2023-01-15T14:06:15;16.88;;;9.15;;
43487;SDS011;29078;41.932;25.554;2023-01-15T14:08:43;12.00;;;9.20;;
43487;SDS011;29078;41.932;25.554;2023-01-15T14:11:33;10.90;;;8.63;;
43487;SDS011;29078;41.932;25.554;2023-01-15T14:16:57;9.13;;;6.90;;
43487;SDS011;29078;41.932;25.554;2023-01-15T14:22:00;14.40;;;11.60;;
43487;SDS011;29078;41.932;25.554;2023-01-15T14:24:57;16.02;;;10.73;;
43487;SDS011;29078;41.932;25.554;2023-01-15T14:27:50;14.00;;;10.68;;
43487;SDS011;29078;41.932;25.554;2023-01-15T14:32:56;17.08;;;12.05;;
43487;SDS011;29078;41.932;25.554;2023-01-15T14:35:33;15.13;;;11.43;;
43487;SDS011;29078;41.932;25.554;2023-01-15T14:38:10;19.05;;;12.20;;
43487;SDS011;29078;41.932;25.554;2023-01-15T14:40:39;16.50;;;11.85;;
43487;SDS011;29078;41.932;25.554;2023-01-15T14:43:17;15.57;;;12.52;;
43487;SDS011;29078;41.932;25.554;2023-01-15T14:45:45;17.27;;;13.55;;
43487;SDS011;29078;41.932;25.554;2023-01-15T14:48:33;17.05;;;12.93;;
43487;SDS011;29078;41.932;25.554;2023-01-15T14:51:12;13.45;;;10.93;;
43487;SDS011;29078;41.932;25.554;2023-01-15T14:53:41;15.57;;;11.55;;
43487;SDS011;29078;41.932;25.554;2023-01-15T14:56:15;18.00;;;13.57;;
43487;SDS011;29078;41.932;25.554;2023-01-15T15:01:33;22.90;;;17.90;;
43487;SDS011;29078;41.932;25.554;2023-01-15T15:06:54;18.98;;;15.65;;
43487;SDS011;29078;41.932;25.554;2023-01-15T15:09:38;24.83;;;20.60;;
43487;SDS011;29078;41.932;25.554;2023-01-15T15:17:56;43.03;;;29.02;;
43487;SDS011;29078;41.932;25.554;2023-01-15T15:23:13;24.17;;;17.20;;
43487;SDS011;29078;41.932;25.554;2023-01-15T15:25:42;22.42;;;18.30;;
43487;SDS011;29078;41.932;25.554;2023-01-15T15:28:21;27.73;;;22.05;;
43487;SDS011;29078;41.932;25.554;2023-01-15T15:30:47;28.23;;;22.42;;
43487;SDS011;29078;41.932;25.554;2023-01-15T15:33:17;30.33;;;24.35;;
43487;SDS011;29078;41.932;25.554;2023-01-15T15:35:49;33.17;;;25.15;;
43487;SDS011;29078;41.932;25.554;2023-01-15T15:40:45;33.90;;;25.80;;
43487;SDS011;29078;41.932;25.554;2023-01-15T15:46:02;39.63;;;29.48;;
43487;SDS011;29078;41.932;25.554;2023-01-15T15:48:48;44.65;;;32.20;;
43487;SDS011;29078;41.932;25.554;2023-01-15T15:53:49;36.95;;;29.30;;
43487;SDS011;29078;41.932;25.554;2023-01-15T15:56:14;41.28;;;32.65;;
43487;SDS011;29078;41.932;25.554;2023-01-15T15:58:40;39.53;;;28.23;;
43487;SDS011;29078;41.932;25.554;2023-01-15T16:01:09;38.33;;;29.50;;
43487;SDS011;29078;41.932;25.554;2023-01-15T16:03:35;36.95;;;27.00;;
43487;SDS011;29078;41.932;25.554;2023-01-15T16:06:02;40.70;;;30.33;;
43487;SDS011;29078;41.932;25.554;2023-01-15T16:08:30;48.05;;;36.00;;
43487;SDS011;29078;41.932;25.554;2023-01-15T16:11:06;50.97;;;37.28;;
43487;SDS011;29078;41.932;25.554;2023-01-15T16:13:43;52.47;;;40.90;;
43487;SDS011;29078;41.932;25.554;2023-01-15T16:16:10;53.65;;;42.83;;
43487;SDS011;29078;41.932;25.554;2023-01-15T16:18:41;56.70;;;43.33;;
43487;SDS011;29078;41.932;25.554;2023-01-15T16:21:19;53.85;;;41.80;;
43487;SDS011;29078;41.932;25.554;2023-01-15T16:23:56;53.75;;;43.15;;
43487;SDS011;29078;41.932;25.554;2023-01-15T16:29:05;58.45;;;44.22;;
43487;SDS011;29078;41.932;25.554;2023-01-15T16:31:40;53.17;;;42.88;;
43487;SDS011;29078;41.932;25.554;2023-01-15T16:34:05;48.30;;;40.40;;
43487;SDS011;29078;41.932;25.554;2023-01-15T16:36:38;53.17;;;41.50;;
43487;SDS011;29078;41.932;25.554;2023-01-15T16:39:06;40.28;;;34.72;;
43487;SDS011;29078;41.932;25.554;2023-01-15T16:41:47;45.53;;;36.03;;
43487;SDS011;29078;41.932;25.554;2023-01-15T16:47:02;52.22;;;42.63;;
43487;SDS011;29078;41.932;25.554;2023-01-15T16:49:29;55.92;;;44.55;;
43487;SDS011;29078;41.932;25.554;2023-01-15T16:51:57;57.30;;;46.10;;
43487;SDS011;29078;41.932;25.554;2023-01-15T16:56:54;65.57;;;51.80;;
43487;SDS011;29078;41.932;25.554;2023-01-15T17:01:52;52.58;;;42.20;;
43487;SDS011;29078;41.932;25.554;2023-01-15T17:04:36;49.23;;;40.17;;